Time;durP1;ratioP1;P1;durP2;ratioP2;P2;SDS_P1;SDS_P2;PMS_P1;PMS_P2;Temp;Humidity;BMP_temperature;BMP_pressure;BME280_temperature;BME280_humidity;BME280_pressure;Samples;Min_cycle;Max_cycle;Signal;HPM_P1;HPM_P2
2021/06/05 00:00:31;;;;;;;10.18;8.10;;;;;;;16.82;81.04;99951.03;5032449;28;20051;-69
2021/06/05 00:02:58;;;;;;;9.30;8.00;;;;;;;16.80;81.15;99951.13;5032302;28;20033;-67
2021/06/05 00:05:26;;;;;;;11.38;9.40;;;;;;;16.78;81.65;99945.06;5031815;28;20374;-70
2021/06/05 00:07:52;;;;;;;10.98;9.88;;;;;;;16.79;81.50;99940.59;5032041;28;20060;-68
2021/06/05 00:10:24;;;;;;;13.55;11.10;;;;;;;16.79;81.75;99948.59;5033740;28;20029;-69
2021/06/05 00:12:50;;;;;;;12.63;10.00;;;;;;;16.77;81.85;99953.16;5032959;28;20401;-68
2021/06/05 00:15:23;;;;;;;15.68;12.15;;;;;;;16.74;81.89;99957.72;5033131;28;20108;-69
2021/06/05 00:17:48;;;;;;;13.70;9.57;;;;;;;16.73;82.33;99965.81;5033246;28;20045;-69
2021/06/05 00:20:14;;;;;;;9.80;8.80;;;;;;;16.74;81.91;99978.19;5032793;28;20026;-69
2021/06/05 00:22:39;;;;;;;15.25;12.25;;;;;;;16.78;82.10;99977.00;5031374;28;20049;-68
2021/06/05 00:25:07;;;;;;;11.45;10.30;;;;;;;16.83;82.23;99977.53;5032676;28;20056;-69
2021/06/05 00:27:34;;;;;;;17.85;13.20;;;;;;;16.91;82.52;99971.66;5031924;28;20036;-69
2021/06/05 00:30:00;;;;;;;12.25;10.98;;;;;;;16.97;82.59;99965.03;5031847;28;20045;-68
2021/06/05 00:32:25;;;;;;;13.18;10.55;;;;;;;16.99;82.51;99960.47;5031605;28;20033;-68
2021/06/05 00:34:50;;;;;;;14.55;10.52;;;;;;;17.02;82.65;99965.56;5031770;28;20041;-69
2021/06/05 00:37:16;;;;;;;13.15;11.48;;;;;;;17.04;82.29;99966.28;5031285;28;20041;-68
2021/06/05 00:39:42;;;;;;;14.48;12.23;;;;;;;17.06;81.75;99967.03;5031501;28;20091;-68
2021/06/05 00:42:08;;;;;;;14.63;12.57;;;;;;;17.11;81.92;99972.88;5031110;28;20512;-68
2021/06/05 00:44:33;;;;;;;11.70;10.60;;;;;;;17.13;81.76;99969.13;5030823;28;20041;-69
2021/06/05 00:46:58;;;;;;;16.52;11.40;;;;;;;17.11;81.37;99962.22;5030453;28;20140;-69
2021/06/05 00:49:24;;;;;;;13.95;11.20;;;;;;;17.13;81.51;99963.81;5030557;28;20124;-69
2021/06/05 00:51:56;;;;;;;13.68;11.75;;;;;;;17.11;81.56;99963.06;5031687;28;20040;-68
2021/06/05 00:54:23;;;;;;;14.23;11.63;;;;;;;17.08;81.38;99965.97;5030851;28;20033;-69
2021/06/05 00:56:55;;;;;;;12.23;10.80;;;;;;;17.04;81.41;99966.28;5030904;28;20060;-68
2021/06/05 00:59:22;;;;;;;12.75;11.45;;;;;;;17.04;81.66;99976.94;5030743;28;20029;-68
2021/06/05 01:01:47;;;;;;;11.35;10.23;;;;;;;17.01;82.04;99982.50;5007142;28;20029;-68
2021/06/05 01:04:13;;;;;;;12.38;11.07;;;;;;;16.98;82.05;99982.72;5030622;28;20167;-69
2021/06/05 01:06:50;;;;;;;13.88;11.75;;;;;;;17.01;82.49;99979.84;5030420;28;20461;-68
2021/06/05 01:09:32;;;;;;;12.98;11.63;;;;;;;17.01;82.05;99975.38;5030781;28;20112;-68
2021/06/05 01:12:20;;;;;;;12.85;11.02;;;;;;;17.01;81.82;99972.69;5030400;28;20029;-68
2021/06/05 01:14:51;;;;;;;13.68;11.35;;;;;;;17.01;81.74;99970.03;5030485;28;20025;-69
2021/06/05 01:17:23;;;;;;;15.63;11.02;;;;;;;17.01;81.67;99971.84;5030056;28;20042;-69
2021/06/05 01:19:55;;;;;;;15.63;13.02;;;;;;;16.97;82.01;99981.03;5030321;28;20061;-68
2021/06/05 01:22:54;;;;;;;16.45;14.73;;;;;;;16.97;81.80;99975.69;5030334;28;20038;-68
2021/06/05 01:25:38;;;;;;;16.08;13.65;;;;;;;16.98;82.25;99967.56;5030000;28;20038;-68
2021/06/05 01:28:10;;;;;;;17.02;15.23;;;;;;;17.01;82.04;99980.69;5030115;28;20092;-69
2021/06/05 01:30:48;;;;;;;21.45;16.85;;;;;;;17.00;82.21;99981.63;5028900;28;20128;-69
2021/06/05 01:33:18;;;;;;;18.88;15.40;;;;;;;17.01;82.12;99980.69;5030484;28;20056;-69
2021/06/05 01:35:43;;;;;;;23.70;19.35;;;;;;;16.99;82.19;99979.94;5030281;28;20660;-68
2021/06/05 01:38:12;;;;;;;25.40;19.55;;;;;;;17.00;82.18;99978.13;5030085;28;20112;-69
2021/06/05 01:40:38;;;;;;;25.95;20.90;;;;;;;17.02;82.26;99976.22;5030094;28;20133;-69
2021/06/05 01:43:05;;;;;;;27.73;23.05;;;;;;;17.02;81.90;99973.53;5030258;28;20490;-68
2021/06/05 01:45:37;;;;;;;28.35;20.88;;;;;;;17.05;82.01;99974.16;5030241;28;20029;-68
2021/06/05 01:48:03;;;;;;;29.05;22.15;;;;;;;17.07;81.95;99974.06;5028187;28;20033;-68
2021/06/05 01:50:32;;;;;;;34.28;23.67;;;;;;;17.10;82.27;99977.31;5042685;28;20052;-67
2021/06/05 01:53:02;;;;;;;42.88;30.63;;;;;;;17.16;81.60;99978.72;5050094;28;20145;-69
2021/06/05 01:55:32;;;;;;;39.03;29.90;;;;;;;17.14;81.58;99976.16;5049542;28;20112;-69
2021/06/05 01:58:01;;;;;;;38.70;29.98;;;;;;;17.15;81.75;99975.22;5049714;28;20032;-69
2021/06/05 02:00:34;;;;;;;40.35;29.85;;;;;;;17.17;81.42;99970.59;5047912;28;20095;-69
2021/06/05 02:03:00;;;;;;;42.13;31.02;;;;;;;17.22;81.47;99972.91;5050072;28;20029;-69
2021/06/05 02:05:29;;;;;;;36.63;26.85;;;;;;;17.22;81.38;99967.59;5049240;28;20055;-68
2021/06/05 02:07:55;;;;;;;44.15;30.92;;;;;;;17.24;81.49;99970.16;5049725;28;20492;-69
2021/06/05 02:10:23;;;;;;;42.63;29.80;;;;;;;17.23;81.59;99971.09;5050126;28;20087;-69
2021/06/05 02:12:52;;;;;;;43.72;30.00;;;;;;;17.25;81.20;99971.84;5049697;28;20454;-69
2021/06/05 02:15:32;;;;;;;52.45;36.70;;;;;;;17.21;81.34;99968.56;5036384;28;20036;-69
2021/06/05 02:18:00;;;;;;;50.72;33.80;;;;;;;17.21;81.63;99978.38;5029468;28;20121;-69
2021/06/05 02:20:33;;;;;;;46.60;32.28;;;;;;;17.20;82.02;99969.50;5029497;28;20033;-68
2021/06/05 02:23:02;;;;;;;48.20;33.92;;;;;;;17.21;81.72;99973.91;5029488;28;20033;-68
2021/06/05 02:25:28;;;;;;;44.08;33.38;;;;;;;17.24;81.90;99967.50;5028892;28;20034;-68
2021/06/05 02:27:56;;;;;;;44.63;32.38;;;;;;;17.24;80.92;99957.69;5029536;28;20037;-69
2021/06/05 02:30:23;;;;;;;44.35;31.50;;;;;;;17.27;81.56;99959.25;5029519;28;20026;-67
2021/06/05 02:32:49;;;;;;;43.28;30.60;;;;;;;17.32;81.42;99957.09;5029330;28;20037;-68
2021/06/05 02:35:19;;;;;;;43.83;31.90;;;;;;;17.32;80.82;99951.78;5029115;28;20041;-69
2021/06/05 02:37:46;;;;;;;41.08;28.83;;;;;;;17.32;80.57;99951.78;5029011;28;20038;-68
2021/06/05 02:40:16;;;;;;;36.63;27.17;;;;;;;17.34;80.63;99948.03;5029165;28;20049;-68
2021/06/05 02:42:41;;;;;;;36.20;28.08;;;;;;;17.34;80.39;99944.50;5029004;28;20068;-68
2021/06/05 02:45:13;;;;;;;39.05;28.38;;;;;;;17.34;80.33;99947.19;5029167;28;20485;-69
2021/06/05 02:47:49;;;;;;;31.42;24.33;;;;;;;17.36;80.33;99942.59;5029099;28;20033;-67
2021/06/05 02:50:15;;;;;;;29.60;24.35;;;;;;;17.38;81.08;99952.16;5029336;28;20037;-67
2021/06/05 02:52:40;;;;;;;35.35;25.42;;;;;;;17.41;81.29;99942.25;5027412;28;20037;-68
2021/06/05 02:55:15;;;;;;;32.60;26.65;;;;;;;17.44;81.19;99947.34;5027581;28;20033;-69
2021/06/05 02:57:40;;;;;;;38.83;28.90;;;;;;;17.43;80.66;99949.16;5029008;28;20040;-68
2021/06/05 03:00:22;;;;;;;35.33;27.45;;;;;;;17.43;80.37;99948.31;5029369;28;20065;-68
2021/06/05 03:02:48;;;;;;;33.47;26.10;;;;;;;17.46;80.61;99948.09;5029020;28;20087;-68
2021/06/05 03:05:13;;;;;;;36.88;27.48;;;;;;;17.44;80.46;99952.66;5028922;28;20056;-68
2021/06/05 03:07:39;;;;;;;33.85;25.55;;;;;;;17.43;80.57;99949.16;5029031;28;20040;-68
2021/06/05 03:10:06;;;;;;;34.30;26.77;;;;;;;17.43;80.30;99953.66;5029138;28;20485;-68
2021/06/05 03:12:31;;;;;;;41.33;30.48;;;;;;;17.42;80.40;99954.59;5031182;28;20061;-68
2021/06/05 03:14:56;;;;;;;36.53;27.08;;;;;;;17.39;80.32;99953.84;5031096;28;20485;-68
2021/06/05 03:17:22;;;;;;;35.50;28.05;;;;;;;17.39;80.61;99947.69;5032955;28;20083;-67
2021/06/05 03:19:47;;;;;;;32.88;25.98;;;;;;;17.41;80.77;99944.91;5032930;28;20033;-68
2021/06/05 03:22:13;;;;;;;33.88;25.30;;;;;;;17.40;80.89;99949.41;5032802;28;20068;-68
2021/06/05 03:24:38;;;;;;;34.13;24.75;;;;;;;17.42;80.98;99950.13;5032889;28;20038;-68
2021/06/05 03:27:04;;;;;;;33.25;25.27;;;;;;;17.44;80.64;99950.84;5032513;28;20413;-68
2021/06/05 03:29:29;;;;;;;37.95;27.10;;;;;;;17.44;80.65;99955.34;5032814;28;20116;-68
2021/06/05 03:31:56;;;;;;;34.70;26.85;;;;;;;17.46;80.76;99953.41;5032479;28;20557;-68
2021/06/05 03:34:23;;;;;;;43.03;31.35;;;;;;;17.47;80.61;99942.63;5033002;28;20030;-68
2021/06/05 03:36:49;;;;;;;37.90;24.67;;;;;;;17.49;80.63;99946.03;5030561;28;20490;-68
2021/06/05 03:39:15;;;;;;;37.83;26.15;;;;;;;17.50;80.94;99944.19;5032464;28;20117;-67
2021/06/05 03:41:43;;;;;;;42.15;29.00;;;;;;;17.50;80.46;99941.53;5032158;28;20168;-69
2021/06/05 03:44:09;;;;;;;40.28;28.98;;;;;;;17.48;80.65;99947.00;5032446;28;20040;-68
2021/06/05 03:46:34;;;;;;;33.67;25.77;;;;;;;17.48;80.53;99947.00;5032132;28;20038;-69
2021/06/05 03:49:00;;;;;;;34.63;25.20;;;;;;;17.48;80.68;99943.50;5032177;28;20041;-70
2021/06/05 03:51:26;;;;;;;33.97;27.45;;;;;;;17.49;80.61;99940.69;5032604;28;20493;-67
2021/06/05 03:53:51;;;;;;;29.48;24.65;;;;;;;17.51;80.44;99948.59;5032817;28;20034;-68
2021/06/05 03:56:16;;;;;;;32.65;26.88;;;;;;;17.52;79.80;99942.28;5031787;28;20137;-68
2021/06/05 03:58:44;;;;;;;37.58;28.65;;;;;;;17.51;80.40;99951.25;5030634;28;20132;-68
2021/06/05 04:01:15;;;;;;;31.92;25.15;;;;;;;17.52;80.71;99939.59;5031913;28;20771;-68
2021/06/05 04:03:41;;;;;;;34.83;25.85;;;;;;;17.52;80.57;99936.94;5031908;28;20489;-68
2021/06/05 04:06:07;;;;;;;31.92;23.83;;;;;;;17.55;80.23;99936.72;5031807;28;20040;-68
2021/06/05 04:08:33;;;;;;;38.72;25.35;;;;;;;17.56;80.32;99943.75;5031144;28;20034;-68
2021/06/05 04:10:58;;;;;;;38.60;30.08;;;;;;;17.55;80.05;99940.25;5012160;28;20030;-68
2021/06/05 04:13:24;;;;;;;35.28;26.92;;;;;;;17.56;80.33;99936.59;5012531;28;20061;-68
2021/06/05 04:15:49;;;;;;;43.47;29.27;;;;;;;17.60;79.91;99931.91;5011720;28;20087;-68
2021/06/05 04:18:21;;;;;;;42.50;30.20;;;;;;;17.59;80.14;99943.50;5011799;28;20125;-67
2021/06/05 04:20:47;;;;;;;41.92;30.35;;;;;;;17.58;80.02;99939.16;5012033;28;20497;-68
2021/06/05 04:23:13;;;;;;;47.85;31.55;;;;;;;17.56;80.28;99943.75;5011556;28;20054;-68
2021/06/05 04:25:39;;;;;;;50.83;35.05;;;;;;;17.57;80.46;99940.09;5010028;28;20489;-69
2021/06/05 04:28:07;;;;;;;41.47;30.02;;;;;;;17.56;80.70;99941.94;5011657;28;20076;-68
2021/06/05 04:30:35;;;;;;;49.03;35.30;;;;;;;17.53;80.25;99938.66;5011815;28;20034;-68
2021/06/05 04:33:00;;;;;;;46.28;31.13;;;;;;;17.53;80.71;99941.31;5011638;28;20060;-68
2021/06/05 04:35:27;;;;;;;63.10;39.30;;;;;;;17.42;80.95;99943.94;5011289;28;20124;-68
2021/06/05 04:37:53;;;;;;;56.95;36.85;;;;;;;17.39;81.16;99940.53;5012190;28;20120;-70
2021/06/05 04:40:20;;;;;;;60.17;39.75;;;;;;;17.36;80.86;99939.94;5011921;28;20069;-69
2021/06/05 04:42:47;;;;;;;53.50;37.55;;;;;;;17.36;80.97;99939.94;5016187;28;20041;-69
2021/06/05 04:45:12;;;;;;;60.92;39.00;;;;;;;17.36;81.08;99938.09;5031198;28;20044;-68
2021/06/05 04:47:38;;;;;;;61.95;38.28;;;;;;;17.36;81.62;99943.44;5031701;28;20402;-68
2021/06/05 04:50:07;;;;;;;64.75;42.45;;;;;;;17.38;81.51;99943.34;5031255;28;20146;-68
2021/06/05 04:52:33;;;;;;;49.05;33.55;;;;;;;17.39;81.76;99943.19;5031144;28;20037;-68
2021/06/05 04:54:58;;;;;;;58.35;39.10;;;;;;;17.38;81.40;99938.00;5031311;28;20212;-69
2021/06/05 04:57:23;;;;;;;53.17;35.05;;;;;;;17.38;81.22;99941.50;5031470;28;20030;-68
2021/06/05 04:59:49;;;;;;;52.70;33.42;;;;;;;17.39;81.53;99942.34;5031594;28;20112;-69
2021/06/05 05:02:16;;;;;;;61.42;38.67;;;;;;;17.43;81.54;99943.84;5028524;28;20041;-69
2021/06/05 05:04:43;;;;;;;48.15;32.05;;;;;;;17.44;81.30;99944.69;5031520;28;20133;-68
2021/06/05 05:07:12;;;;;;;50.95;34.10;;;;;;;17.48;81.33;99946.16;5031146;28;20378;-69
2021/06/05 05:09:37;;;;;;;48.50;32.63;;;;;;;17.52;80.61;99951.16;5031483;28;20051;-69
2021/06/05 05:12:03;;;;;;;41.80;29.35;;;;;;;17.55;80.49;99945.56;5031955;28;20537;-69
2021/06/05 05:14:29;;;;;;;42.15;31.63;;;;;;;17.57;80.12;99946.31;5031750;28;20030;-71
2021/06/05 05:16:54;;;;;;;49.00;33.38;;;;;;;17.62;80.10;99951.25;5032265;28;20166;-68
2021/06/05 05:19:19;;;;;;;41.85;29.63;;;;;;;17.57;80.26;99950.78;5030651;28;20371;-68
2021/06/05 05:21:45;;;;;;;42.33;31.25;;;;;;;17.63;80.17;99957.47;5035000;28;20042;-69
2021/06/05 05:24:10;;;;;;;46.67;33.72;;;;;;;17.59;79.68;99965.69;5039803;28;20025;-69
2021/06/05 05:26:36;;;;;;;51.55;36.22;;;;;;;17.59;79.54;99957.69;5031181;28;20026;-69
2021/06/05 05:29:01;;;;;;;52.30;33.47;;;;;;;17.64;79.34;99954.66;5030600;28;20037;-69
2021/06/05 05:31:28;;;;;;;47.28;31.50;;;;;;;17.70;79.40;99948.03;5031328;28;20037;-69
2021/06/05 05:33:56;;;;;;;42.47;31.05;;;;;;;17.74;79.20;99947.66;5029853;28;20045;-68
2021/06/05 05:36:29;;;;;;;46.90;32.08;;;;;;;17.77;79.06;99947.47;5028550;28;20378;-68
2021/06/05 05:38:55;;;;;;;46.75;30.50;;;;;;;17.83;79.03;99951.50;5030664;28;20548;-68
2021/06/05 05:41:23;;;;;;;45.60;32.97;;;;;;;17.90;79.18;99952.72;5029150;28;20037;-69
2021/06/05 05:43:49;;;;;;;40.95;31.77;;;;;;;17.94;78.67;99951.53;5030118;28;20045;-68
2021/06/05 05:46:15;;;;;;;51.83;36.00;;;;;;;17.95;78.58;99955.88;5029820;28;20046;-69
2021/06/05 05:48:41;;;;;;;56.15;36.45;;;;;;;17.96;78.46;99956.72;5030185;28;20033;-68
2021/06/05 05:51:09;;;;;;;45.55;33.90;;;;;;;18.00;78.48;99968.88;5029748;28;20037;-67
2021/06/05 05:53:36;;;;;;;44.00;31.48;;;;;;;18.00;78.53;99971.53;5029646;28;20494;-68
2021/06/05 05:56:02;;;;;;;45.25;31.85;;;;;;;18.04;77.92;99975.69;5029739;28;20104;-69
2021/06/05 05:58:27;;;;;;;41.42;29.58;;;;;;;18.06;77.78;99968.38;5030199;28;20108;-69
2021/06/05 06:00:54;;;;;;;44.92;31.85;;;;;;;18.12;77.27;99975.91;5030108;28;20025;-68
2021/06/05 06:03:20;;;;;;;42.15;29.42;;;;;;;18.16;77.42;99982.72;5029796;28;20033;-70
2021/06/05 06:05:46;;;;;;;41.67;29.63;;;;;;;18.23;77.25;99985.75;5029607;28;20049;-69
2021/06/05 06:08:13;;;;;;;44.25;30.40;;;;;;;18.26;76.79;99984.66;5029478;28;20030;-69
2021/06/05 06:10:40;;;;;;;49.58;33.65;;;;;;;18.24;76.86;99982.97;5030318;28;20614;-69
2021/06/05 06:13:07;;;;;;;39.95;27.85;;;;;;;18.32;76.94;99986.88;5030774;28;20072;-69
2021/06/05 06:15:33;;;;;;;47.70;33.25;;;;;;;18.37;76.25;99982.84;5029409;28;20033;-67
2021/06/05 06:18:00;;;;;;;44.40;31.65;;;;;;;18.43;76.33;99990.41;5029558;28;20120;-68
2021/06/05 06:20:30;;;;;;;50.70;34.00;;;;;;;18.51;76.53;99991.59;5029993;28;20057;-68
2021/06/05 06:22:56;;;;;;;52.55;34.72;;;;;;;18.53;76.07;99993.16;5025695;28;20033;-67
2021/06/05 06:25:24;;;;;;;49.95;34.38;;;;;;;18.53;75.68;99998.50;5029228;28;20436;-67
2021/06/05 06:27:50;;;;;;;49.42;34.90;;;;;;;18.51;75.34;100002.25;5028882;28;20095;-68
2021/06/05 06:30:25;;;;;;;58.15;37.72;;;;;;;18.48;75.52;100000.69;5029183;28;20043;-67
2021/06/05 06:32:52;;;;;;;55.13;36.00;;;;;;;18.45;75.62;99996.44;5029556;28;20033;-67
2021/06/05 06:35:28;;;;;;;55.42;37.38;;;;;;;18.47;76.15;100009.69;5028991;28;20033;-67
2021/06/05 06:37:55;;;;;;;55.45;36.65;;;;;;;18.42;75.67;100011.88;5029522;28;20036;-68
2021/06/05 06:40:29;;;;;;;52.20;36.83;;;;;;;18.41;76.13;100010.16;5028684;28;20025;-68
2021/06/05 06:42:55;;;;;;;58.88;40.72;;;;;;;18.32;76.07;100011.72;5029051;28;20072;-68
2021/06/05 06:45:21;;;;;;;56.17;39.33;;;;;;;18.29;76.47;100008.47;5030278;28;20049;-69
2021/06/05 06:47:47;;;;;;;62.80;39.10;;;;;;;18.27;76.54;100016.56;5033675;28;20064;-70
2021/06/05 06:50:16;;;;;;;60.75;40.70;;;;;;;18.28;76.57;100017.41;5033922;28;20033;-69
2021/06/05 06:52:42;;;;;;;54.25;38.88;;;;;;;18.24;76.72;100011.50;5034103;28;20480;-69
2021/06/05 06:55:08;;;;;;;68.28;37.97;;;;;;;18.24;76.79;100014.16;5033391;28;20046;-69
2021/06/05 06:57:34;;;;;;;61.25;38.63;;;;;;;18.29;76.98;100011.13;5033388;28;20166;-70
2021/06/05 06:59:59;;;;;;;64.93;41.97;;;;;;;18.29;76.62;100022.66;5033570;28;20091;-69
2021/06/05 07:02:24;;;;;;;54.88;37.17;;;;;;;18.32;76.98;100025.06;5033823;28;20087;-68
2021/06/05 07:04:51;;;;;;;61.97;41.25;;;;;;;18.26;77.11;100028.19;5033449;28;20593;-70
2021/06/05 07:07:17;;;;;;;56.97;37.83;;;;;;;18.22;76.82;100032.09;5033183;28;20091;-69
2021/06/05 07:09:43;;;;;;;58.28;36.35;;;;;;;18.20;76.91;100029.53;5030888;28;20037;-68
2021/06/05 07:12:08;;;;;;;53.20;34.03;;;;;;;18.17;77.19;100029.78;5032780;28;20080;-69
2021/06/05 07:14:34;;;;;;;45.50;32.30;;;;;;;18.21;77.48;100030.38;5033287;28;20040;-69
2021/06/05 07:17:00;;;;;;;43.53;29.10;;;;;;;18.23;77.13;100026.63;5032875;28;20026;-69
2021/06/05 07:19:26;;;;;;;43.60;27.30;;;;;;;18.28;77.34;100033.44;5033120;28;20029;-68
2021/06/05 07:21:52;;;;;;;43.55;28.33;;;;;;;18.29;77.27;100038.66;5033015;28;20051;-68
2021/06/05 07:24:17;;;;;;;34.20;24.90;;;;;;;18.32;77.53;100040.25;5033066;28;20033;-68
2021/06/05 07:26:43;;;;;;;41.92;27.80;;;;;;;18.34;77.73;100038.31;5032667;28;20037;-68
2021/06/05 07:29:11;;;;;;;34.08;25.15;;;;;;;18.38;77.74;100035.25;5032831;28;20056;-70
2021/06/05 07:31:45;;;;;;;34.58;27.13;;;;;;;18.39;77.33;100031.63;5033308;28;20080;-70
2021/06/05 07:34:11;;;;;;;38.72;26.17;;;;;;;18.36;77.41;100041.69;5033045;28;20029;-69
2021/06/05 07:36:42;;;;;;;38.95;25.80;;;;;;;18.36;77.94;100047.03;5032176;28;20389;-68
2021/06/05 07:39:10;;;;;;;34.97;22.73;;;;;;;18.27;77.85;100048.59;5032583;28;20084;-68
2021/06/05 07:41:36;;;;;;;36.08;22.77;;;;;;;18.18;78.27;100050.16;5032423;28;20030;-67
2021/06/05 07:44:03;;;;;;;30.23;21.45;;;;;;;18.16;78.33;100044.09;5031091;28;20037;-68
2021/06/05 07:46:29;;;;;;;42.55;24.23;;;;;;;18.14;79.25;100043.38;5032561;28;20378;-69
2021/06/05 07:48:54;;;;;;;36.03;25.52;;;;;;;18.10;79.32;100043.72;5032684;28;20087;-70
2021/06/05 07:51:21;;;;;;;43.70;28.45;;;;;;;18.06;79.06;100043.09;5032669;28;20029;-69
2021/06/05 07:53:47;;;;;;;40.75;28.17;;;;;;;18.06;78.94;100045.75;5032302;28;20120;-68
2021/06/05 07:56:13;;;;;;;44.50;30.60;;;;;;;18.07;78.84;100049.28;5031487;28;20489;-68
2021/06/05 07:58:39;;;;;;;46.95;31.13;;;;;;;18.05;78.69;100051.22;5031538;28;20559;-70
2021/06/05 08:01:04;;;;;;;35.92;25.27;;;;;;;18.07;78.79;100050.13;5032214;28;20034;-68
2021/06/05 08:03:30;;;;;;;36.47;25.60;;;;;;;18.07;78.64;100050.13;5032169;28;20029;-70
2021/06/05 08:05:56;;;;;;;39.88;26.27;;;;;;;18.05;78.57;100053.91;5032008;28;20500;-68
2021/06/05 08:08:22;;;;;;;29.73;18.08;;;;;;;18.03;78.67;100046.00;5032445;28;20072;-69
2021/06/05 08:10:47;;;;;;;15.13;11.35;;;;;;;17.99;77.91;100052.53;5031951;28;20120;-70
2021/06/05 08:13:13;;;;;;;10.80;8.27;;;;;;;17.93;77.65;100063.66;5031935;28;20549;-68
2021/06/05 08:15:43;;;;;;;10.40;7.47;;;;;;;17.90;77.93;100059.41;5031514;28;20028;-69
2021/06/05 08:18:10;;;;;;;9.13;6.68;;;;;;;17.93;77.58;100061.84;5031982;28;20030;-69
2021/06/05 08:20:42;;;;;;;7.93;5.95;;;;;;;17.92;77.74;100061.97;5031611;28;20523;-69
2021/06/05 08:23:07;;;;;;;8.52;6.43;;;;;;;17.91;77.58;100057.59;5031500;28;20084;-68
2021/06/05 08:25:33;;;;;;;8.48;6.18;;;;;;;17.95;77.18;100064.41;5030345;28;20489;-69
2021/06/05 08:27:59;;;;;;;7.68;6.35;;;;;;;18.00;76.77;100060.41;5033378;28;20030;-70
2021/06/05 08:30:29;;;;;;;11.30;6.80;;;;;;;18.01;76.78;100067.44;5032717;28;20029;-69
2021/06/05 08:32:55;;;;;;;9.52;8.25;;;;;;;17.94;76.29;100065.34;5032180;28;20030;-69
2021/06/05 08:35:21;;;;;;;8.23;7.13;;;;;;;17.93;76.76;100069.84;5031293;28;20037;-68
2021/06/05 08:37:46;;;;;;;10.40;7.28;;;;;;;17.84;76.32;100077.69;5031436;28;20041;-69
2021/06/05 08:40:15;;;;;;;9.32;6.95;;;;;;;17.83;76.71;100068.84;5031286;28;20025;-69
2021/06/05 08:42:48;;;;;;;8.13;6.50;;;;;;;17.83;76.68;100081.34;5031497;28;20063;-69
2021/06/05 08:45:16;;;;;;;8.48;6.63;;;;;;;17.80;77.07;100071.75;5032364;28;20060;-70
2021/06/05 08:47:42;;;;;;;10.80;8.32;;;;;;;17.81;77.69;100079.63;5031288;28;20045;-70
2021/06/05 08:50:16;;;;;;;8.95;6.00;;;;;;;17.83;77.80;100079.50;5032043;28;20043;-69
2021/06/05 08:52:53;;;;;;;8.07;5.82;;;;;;;17.85;78.08;100082.06;5032204;28;20037;-70
2021/06/05 08:55:31;;;;;;;9.00;7.03;;;;;;;17.87;78.86;100078.31;5031695;28;20065;-69
2021/06/05 08:58:05;;;;;;;6.43;5.60;;;;;;;17.85;77.83;100077.59;5031366;28;20081;-69
2021/06/05 09:00:38;;;;;;;7.53;6.00;;;;;;;17.85;78.34;100077.59;5030909;28;20038;-68
2021/06/05 09:03:10;;;;;;;6.65;5.57;;;;;;;17.85;78.24;100074.06;5031129;28;20036;-69
2021/06/05 09:05:39;;;;;;;9.45;7.38;;;;;;;17.83;78.27;100076.84;5030975;28;20025;-70
2021/06/05 09:08:06;;;;;;;7.95;6.30;;;;;;;17.82;78.12;100077.81;5030360;28;20034;-68
2021/06/05 09:10:33;;;;;;;7.53;6.68;;;;;;;17.83;78.44;100073.34;5030373;28;20447;-68
2021/06/05 09:12:58;;;;;;;8.55;7.15;;;;;;;17.81;78.21;100076.94;5031540;28;20528;-71
2021/06/05 09:15:33;;;;;;;8.50;7.57;;;;;;;17.74;78.57;100077.50;5030453;28;20048;-69
2021/06/05 09:18:01;;;;;;;11.00;8.43;;;;;;;17.66;78.57;100080.72;5030732;28;20064;-69
2021/06/05 09:20:38;;;;;;;10.50;7.75;;;;;;;17.59;78.16;100075.00;5030672;28;20033;-69
2021/06/05 09:23:28;;;;;;;13.45;9.52;;;;;;;17.52;78.02;100080.88;5030455;28;20045;-68
2021/06/05 09:25:56;;;;;;;14.60;11.38;;;;;;;17.41;78.31;100083.50;5029724;28;20501;-67
2021/06/05 09:28:27;;;;;;;12.18;10.90;;;;;;;17.37;79.00;100083.72;5030634;28;20033;-69
2021/06/05 09:31:11;;;;;;;15.68;13.07;;;;;;;17.35;79.02;100085.66;5030684;28;20029;-69
2021/06/05 09:33:36;;;;;;;13.43;11.52;;;;;;;17.33;79.04;100084.91;5030302;28;20037;-68
2021/06/05 09:36:17;;;;;;;16.95;13.35;;;;;;;17.39;79.14;100088.94;5030326;28;20386;-69
2021/06/05 09:38:49;;;;;;;16.88;13.90;;;;;;;17.46;79.54;100090.19;5030527;28;20439;-67
2021/06/05 09:41:29;;;;;;;19.63;13.55;;;;;;;17.51;78.31;100087.19;5030322;28;20040;-67
2021/06/05 09:44:21;;;;;;;20.38;14.40;;;;;;;17.56;78.71;100085.03;5030063;28;20033;-68
2021/06/05 09:46:57;;;;;;;26.92;18.27;;;;;;;17.53;78.34;100094.13;5029960;28;20040;-67
2021/06/05 09:49:34;;;;;;;21.77;16.77;;;;;;;17.52;78.18;100095.09;5030094;28;20378;-68
2021/06/05 09:52:23;;;;;;;30.15;20.38;;;;;;;17.53;78.86;100096.78;5029876;28;20037;-67
2021/06/05 09:54:54;;;;;;;29.63;22.65;;;;;;;17.47;78.02;100109.69;5029654;28;20083;-67
2021/06/05 09:57:31;;;;;;;32.45;22.77;;;;;;;17.41;78.19;100104.84;5029317;28;20122;-69
2021/06/05 10:00:22;;;;;;;29.58;23.25;;;;;;;17.37;78.47;100109.50;5029889;28;20033;-68
2021/06/05 10:02:50;;;;;;;30.40;24.35;;;;;;;17.33;78.83;100111.56;5029652;28;20165;-68
2021/06/05 10:05:30;;;;;;;35.05;25.90;;;;;;;17.32;78.65;100112.50;5029416;28;20038;-68
2021/06/05 10:08:17;;;;;;;38.88;28.67;;;;;;;17.31;79.18;100126.81;5029723;28;20103;-68
2021/06/05 10:10:45;;;;;;;39.67;29.25;;;;;;;17.34;78.64;100120.41;5029708;28;20116;-68
2021/06/05 10:13:20;;;;;;;43.25;30.60;;;;;;;17.30;77.93;100122.44;5029773;28;20029;-68
2021/06/05 10:15:59;;;;;;;43.00;29.95;;;;;;;17.32;78.26;100125.00;5029760;28;20033;-68
2021/06/05 10:18:30;;;;;;;36.80;27.63;;;;;;;17.33;78.63;100130.22;5029499;28;20045;-68
2021/06/05 10:21:05;;;;;;;38.70;29.10;;;;;;;17.30;78.26;100121.56;5028689;28;20037;-68
2021/06/05 10:23:44;;;;;;;36.97;26.83;;;;;;;17.36;78.43;100121.16;5029637;28;20049;-69
2021/06/05 10:26:49;;;;;;;34.35;26.70;;;;;;;17.39;78.74;100128.91;5028760;28;20037;-69
2021/06/05 10:29:32;;;;;;;28.80;23.95;;;;;;;17.46;78.40;100129.34;5007207;28;20557;-69
2021/06/05 10:32:01;;;;;;;37.10;28.02;;;;;;;17.47;77.23;100123.03;5007037;28;20568;-68
2021/06/05 10:34:42;;;;;;;36.17;27.05;;;;;;;17.60;77.30;100123.84;5019748;28;20037;-68
2021/06/05 10:37:29;;;;;;;36.30;29.45;;;;;;;17.69;77.13;100115.16;5034875;28;20353;-68
2021/06/05 10:39:56;;;;;;;37.88;29.25;;;;;;;17.76;76.44;100118.22;5030099;28;20581;-68
2021/06/05 10:42:27;;;;;;;42.78;30.25;;;;;;;17.74;75.71;100114.81;5029555;28;20091;-69
2021/06/05 10:44:54;;;;;;;40.03;29.50;;;;;;;17.74;75.60;100123.66;5029568;28;20046;-69
2021/06/05 10:47:28;;;;;;;34.28;28.20;;;;;;;17.83;75.43;100119.53;5029303;28;20037;-69
2021/06/05 10:50:02;;;;;;;39.15;27.83;;;;;;;17.83;75.45;100118.66;5029195;28;20576;-68
2021/06/05 10:52:44;;;;;;;33.05;26.85;;;;;;;17.89;75.84;100119.03;5029186;28;20496;-69
2021/06/05 10:55:16;;;;;;;40.58;28.75;;;;;;;17.85;75.45;100120.25;5029301;28;20029;-69
2021/06/05 10:57:45;;;;;;;39.28;28.80;;;;;;;17.75;76.07;100122.72;5029735;28;20092;-69
2021/06/05 11:00:49;;;;;;;40.15;29.02;;;;;;;17.71;75.67;100131.06;5029486;28;20032;-69
2021/06/05 11:03:23;;;;;;;37.78;29.45;;;;;;;17.62;76.82;100129.06;5026203;28;20072;-69
2021/06/05 11:06:08;;;;;;;36.33;29.35;;;;;;;17.57;76.62;100134.72;5029414;28;20036;-69
2021/06/05 11:08:38;;;;;;;37.40;32.20;;;;;;;17.47;76.60;100137.19;5029412;28;20033;-69
2021/06/05 11:11:07;;;;;;;36.08;31.52;;;;;;;17.43;77.14;100137.56;5029672;28;20397;-68
2021/06/05 11:13:35;;;;;;;45.60;31.50;;;;;;;17.43;77.38;100140.22;5029749;28;20111;-68
2021/06/05 11:16:00;;;;;;;43.50;33.55;;;;;;;17.42;76.96;100133.16;5029859;28;20041;-69
2021/06/05 11:18:36;;;;;;;42.72;32.13;;;;;;;17.37;76.48;100136.16;5030864;28;20033;-69
2021/06/05 11:21:34;;;;;;;43.13;31.90;;;;;;;17.33;76.22;100140.88;5031173;28;20037;-69
2021/06/05 11:24:00;;;;;;;46.78;33.47;;;;;;;17.23;76.21;100139.84;5017547;28;20091;-69